createdAt,value
2022-09-06T00:00:22.972Z,63.89
2022-09-06T00:01:22.978Z,63.99
2022-09-06T00:02:22.996Z,64.18
2022-09-06T00:03:22.990Z,64.28
2022-09-06T00:04:23.034Z,64.37
2022-09-06T00:05:22.994Z,64.76
2022-09-06T00:06:22.997Z,64.56
2022-09-06T00:07:23.005Z,64.37
2022-09-06T00:08:23.072Z,64.28
2022-09-06T00:09:23.027Z,64.09
2022-09-06T00:10:23.018Z,64.28
2022-09-06T00:11:23.017Z,64.28
2022-09-06T00:12:23.020Z,63.79
2022-09-06T00:13:23.041Z,63.86
2022-09-06T00:14:23.022Z,64.37
2022-09-06T00:15:23.015Z,63.99
2022-09-06T00:16:25.296Z,64.09
2022-09-06T00:17:23.051Z,63.79
2022-09-06T00:18:23.064Z,63.86
2022-09-06T00:19:23.064Z,64.18
2022-09-06T00:20:23.063Z,64.25
2022-09-06T00:21:23.043Z,63.57
2022-09-06T00:22:23.036Z,63.32
2022-09-06T00:23:23.034Z,64.05
2022-09-06T00:24:23.079Z,63.86
2022-09-06T00:25:23.041Z,63.86
2022-09-06T00:26:23.057Z,63.96
2022-09-06T00:27:23.059Z,63.76
2022-09-06T00:28:23.094Z,63.86
2022-09-06T00:29:23.068Z,63.67
2022-09-06T00:30:23.098Z,63.19
2022-09-06T00:31:23.125Z,64.05
2022-09-06T00:32:23.074Z,64.05
2022-09-06T00:33:23.079Z,63.57
2022-09-06T00:34:23.074Z,63.86
2022-09-06T00:35:23.084Z,63.67
2022-09-06T00:36:23.090Z,64.05
2022-09-06T00:37:23.088Z,64.15
2022-09-06T00:38:23.139Z,63.76
2022-09-06T00:39:23.157Z,63.86
2022-09-06T00:40:23.117Z,64.05
2022-09-06T00:41:23.114Z,63.48
2022-09-06T00:42:23.100Z,63.76
2022-09-06T00:43:23.103Z,63.96
2022-09-06T00:44:23.131Z,64.34
2022-09-06T00:45:23.135Z,63.96
2022-09-06T00:46:23.163Z,63.67
2022-09-06T00:47:23.105Z,63.67
2022-09-06T00:48:23.130Z,64.05
2022-09-06T00:49:23.110Z,63.38
2022-09-06T00:50:23.127Z,64.05
2022-09-06T00:51:23.119Z,63.96
2022-09-06T00:52:23.137Z,63.38
2022-09-06T00:53:23.169Z,64.15
2022-09-06T00:54:23.119Z,64.25
2022-09-06T00:55:23.133Z,64.05
2022-09-06T00:56:23.148Z,63.67
2022-09-06T00:57:23.135Z,64.05
2022-09-06T00:58:23.254Z,63.57
2022-09-06T00:59:23.134Z,64.15
2022-09-06T01:00:23.176Z,63.57
2022-09-06T01:01:23.310Z,64.25
2022-09-06T01:02:23.210Z,64.05
2022-09-06T01:03:23.159Z,63.28
2022-09-06T01:04:23.171Z,63.48
2022-09-06T01:05:23.156Z,63.76
2022-09-06T01:06:23.154Z,63.76
2022-09-06T01:07:23.154Z,64.12
2022-09-06T01:08:23.219Z,63.38
2022-09-06T01:09:23.168Z,63.73
2022-09-06T01:10:23.179Z,64.15
2022-09-06T01:11:23.176Z,63.92
2022-09-06T01:12:23.180Z,63.54
2022-09-06T01:13:23.184Z,63.35
2022-09-06T01:14:23.183Z,64.05
2022-09-06T01:15:23.287Z,64.25
2022-09-06T01:16:23.190Z,63.86
2022-09-06T01:17:23.193Z,63.86
2022-09-06T01:18:23.242Z,64.43
2022-09-06T01:19:23.200Z,64.59
2022-09-06T01:20:23.201Z,64.53
2022-09-06T01:21:23.192Z,64.15
2022-09-06T01:22:23.190Z,64.59
2022-09-06T01:23:23.196Z,64.59
2022-09-06T01:24:23.204Z,64.40
2022-09-06T01:25:23.225Z,64.89
2022-09-06T01:26:23.226Z,65.01
2022-09-06T01:27:23.227Z,64.79
2022-09-06T01:28:23.285Z,64.50
2022-09-06T01:29:23.224Z,64.89
2022-09-06T01:30:23.225Z,64.22
2022-09-06T01:31:23.317Z,64.50
2022-09-06T01:32:23.219Z,64.50
2022-09-06T01:33:23.230Z,64.22
2022-09-06T01:34:23.232Z,64.22
2022-09-06T01:35:23.227Z,64.22
2022-09-06T01:36:23.252Z,64.22
2022-09-06T01:37:23.233Z,64.98
2022-09-06T01:40:02.978Z,64.89
2022-09-06T01:40:55.299Z,64.40
2022-09-06T01:41:55.311Z,64.79
2022-09-06T01:42:55.299Z,64.89
2022-09-06T01:43:55.314Z,64.85
2022-09-06T01:44:55.298Z,64.89
2022-09-06T01:45:55.352Z,64.85
2022-09-06T01:46:55.328Z,64.76
2022-09-06T01:47:55.342Z,64.79
2022-09-06T01:48:55.340Z,64.76
2022-09-06T01:49:55.322Z,64.85
2022-09-06T01:50:55.338Z,64.85
2022-09-06T01:51:55.317Z,64.66
2022-09-06T01:52:55.320Z,65.14
2022-09-06T01:53:55.357Z,64.66
2022-09-06T01:54:55.322Z,65.43
2022-09-06T01:55:55.327Z,65.43
2022-09-06T01:56:55.356Z,65.23
2022-09-06T01:57:55.347Z,65.14
2022-09-06T01:58:55.367Z,65.43
2022-09-06T01:59:55.363Z,64.95
2022-09-06T02:00:55.336Z,64.66
2022-09-06T02:01:55.413Z,65.05
2022-09-06T02:02:55.393Z,64.66
2022-09-06T02:03:55.362Z,64.76
2022-09-06T02:04:55.351Z,65.23
2022-09-06T02:05:55.356Z,65.43
2022-09-06T02:06:55.366Z,65.43
2022-09-06T02:07:55.368Z,65.43
2022-09-06T02:08:55.371Z,65.05
2022-09-06T02:09:55.366Z,65.43
2022-09-06T02:10:55.387Z,65.52
2022-09-06T02:11:55.365Z,65.72
2022-09-06T02:12:55.365Z,65.43
2022-09-06T02:13:55.390Z,65.43
2022-09-06T02:14:55.371Z,65.72
2022-09-06T02:15:55.382Z,65.62
2022-09-06T02:16:55.427Z,65.62
2022-09-06T02:17:55.396Z,65.72
2022-09-06T02:18:55.379Z,65.91
2022-09-06T02:19:55.388Z,65.52
2022-09-06T02:20:55.391Z,65.52
2022-09-06T02:21:55.406Z,65.52
2022-09-06T02:22:55.404Z,65.52
2022-09-06T02:23:55.400Z,65.33
2022-09-06T02:24:55.399Z,65.81
2022-09-06T02:25:55.401Z,65.52
2022-09-06T02:26:55.417Z,65.72
2022-09-06T02:27:55.405Z,65.33
2022-09-06T02:28:55.408Z,65.43
2022-09-06T02:29:55.415Z,65.81
2022-09-06T02:30:55.507Z,66.29
2022-09-06T02:31:55.426Z,66.10
2022-09-06T02:32:55.433Z,65.33
2022-09-06T02:33:55.418Z,65.72
2022-09-06T02:34:55.441Z,65.43
2022-09-06T02:35:55.419Z,65.81
2022-09-06T02:36:55.431Z,66.00
2022-09-06T02:37:55.437Z,66.00
2022-09-06T02:38:55.426Z,66.00
2022-09-06T02:39:55.504Z,65.52
2022-09-06T02:40:55.430Z,65.33
2022-09-06T02:41:55.465Z,66.10
2022-09-06T02:42:55.434Z,66.39
2022-09-06T02:43:55.443Z,66.67
2022-09-06T02:44:55.450Z,66.16
2022-09-06T02:45:55.517Z,66.39
2022-09-06T02:46:57.240Z,66.29
2022-09-06T02:47:55.466Z,66.58
2022-09-06T02:48:55.466Z,66.19
2022-09-06T02:49:55.449Z,66.39
2022-09-06T02:50:55.453Z,66.00
2022-09-06T02:51:55.449Z,66.10
2022-09-06T02:52:55.468Z,65.91
2022-09-06T02:53:55.476Z,65.88
2022-09-06T02:54:55.489Z,66.45
2022-09-06T02:55:55.458Z,66.29
2022-09-06T02:56:55.484Z,66.58
2022-09-06T02:57:55.476Z,66.64
2022-09-06T02:58:55.478Z,66.49
2022-09-06T02:59:55.469Z,66.67
2022-09-06T03:00:55.517Z,66.35
2022-09-06T03:01:55.548Z,66.55
2022-09-06T03:02:55.473Z,66.67
2022-09-06T03:04:03.027Z,66.49
2022-09-06T03:04:55.497Z,66.83
2022-09-06T03:05:55.490Z,66.67
2022-09-06T03:06:55.494Z,66.19
2022-09-06T03:07:55.483Z,66.64
2022-09-06T03:08:55.511Z,66.83
2022-09-06T03:09:55.497Z,67.32
2022-09-06T03:10:55.507Z,67.32
2022-09-06T03:11:55.524Z,67.32
2022-09-06T03:12:55.498Z,67.22
2022-09-06T03:13:55.495Z,67.25
2022-09-06T03:14:55.497Z,67.35
2022-09-06T03:15:55.514Z,67.41
2022-09-06T03:16:55.603Z,67.60
2022-09-06T03:17:55.518Z,67.73
2022-09-06T03:18:55.512Z,66.93
2022-09-06T03:19:55.517Z,67.25
2022-09-06T03:20:55.534Z,67.41
2022-09-06T03:21:55.516Z,67.60
2022-09-06T03:22:55.525Z,67.89
2022-09-06T03:23:55.519Z,67.60
2022-09-06T03:24:55.529Z,68.12
2022-09-06T03:25:55.537Z,68.02
2022-09-06T03:26:55.536Z,68.02
2022-09-06T03:27:55.556Z,68.27
2022-09-06T03:28:55.522Z,68.27
2022-09-06T03:29:55.526Z,68.66
2022-09-06T03:30:55.594Z,68.50
2022-09-06T03:31:55.540Z,68.79
2022-09-06T03:32:55.555Z,68.27
2022-09-06T03:33:55.547Z,68.37
2022-09-06T03:34:55.537Z,68.37
2022-09-06T03:35:55.550Z,68.56
2022-09-06T03:36:55.538Z,68.02
2022-09-06T03:37:55.561Z,68.30
2022-09-06T03:38:55.557Z,68.59
2022-09-06T03:39:55.612Z,68.40
2022-09-06T03:40:55.546Z,69.07
2022-09-06T03:41:55.570Z,68.88
2022-09-06T03:42:55.564Z,68.37
2022-09-06T03:43:55.568Z,69.33
2022-09-06T03:44:55.563Z,69.81
2022-09-06T03:45:55.593Z,69.62
2022-09-06T03:46:55.592Z,69.71
2022-09-06T03:47:55.568Z,70.00
2022-09-06T03:48:55.585Z,70.09
2022-09-06T03:49:55.565Z,69.71
2022-09-06T03:50:55.567Z,69.81
2022-09-06T03:51:55.578Z,69.42
2022-09-06T03:52:55.598Z,69.23
2022-09-06T03:53:55.586Z,69.52
2022-09-06T03:54:55.575Z,69.42
2022-09-06T03:55:55.609Z,69.81
2022-09-06T03:56:55.584Z,69.71
2022-09-06T03:57:55.599Z,70.29
2022-09-06T03:58:55.598Z,70.19
2022-09-06T03:59:55.599Z,70.00
2022-09-06T04:00:55.639Z,70.57
2022-09-06T04:01:55.659Z,71.82
2022-09-06T04:02:59.692Z,72.30
2022-09-06T04:03:55.610Z,73.74
2022-09-06T04:04:55.632Z,72.97
2022-09-06T04:05:55.609Z,72.20
2022-09-06T04:06:55.607Z,71.63
2022-09-06T04:07:55.600Z,70.96
2022-09-06T04:08:55.627Z,71.82
2022-09-06T04:09:55.618Z,71.72
2022-09-06T04:10:55.604Z,70.96
2022-09-06T04:11:55.611Z,71.15
2022-09-06T04:12:55.629Z,71.15
2022-09-06T04:13:55.616Z,71.25
2022-09-06T04:14:55.641Z,70.96
2022-09-06T04:15:55.637Z,70.96
2022-09-06T04:16:55.661Z,70.96
2022-09-06T04:17:55.635Z,71.05
2022-09-06T04:18:55.637Z,71.15
2022-09-06T04:19:55.623Z,71.92
2022-09-06T04:20:55.625Z,71.53
2022-09-06T04:21:55.642Z,71.92
2022-09-06T04:22:55.639Z,71.92
2022-09-06T04:23:55.630Z,71.92
2022-09-06T04:24:55.646Z,72.11
2022-09-06T04:25:55.658Z,71.82
2022-09-06T04:26:55.662Z,71.72
2022-09-06T04:27:55.641Z,72.01
2022-09-06T04:28:55.648Z,71.69
2022-09-06T04:29:55.653Z,72.36
2022-09-06T04:30:55.645Z,72.27
2022-09-06T04:31:55.736Z,72.36
2022-09-06T04:32:55.656Z,72.07
2022-09-06T04:33:55.663Z,72.17
2022-09-06T04:34:55.659Z,72.27
2022-09-06T04:35:55.664Z,72.45
2022-09-06T04:36:55.674Z,72.45
2022-09-06T04:37:55.671Z,72.27
2022-09-06T04:38:55.678Z,72.36
2022-09-06T04:39:55.778Z,72.94
2022-09-06T04:40:55.661Z,72.64
2022-09-06T04:41:55.663Z,73.22
2022-09-06T04:42:55.690Z,72.64
2022-09-06T04:43:55.672Z,72.74
2022-09-06T04:44:55.668Z,72.55
2022-09-06T04:45:55.737Z,73.51
2022-09-06T04:46:56.245Z,72.64
2022-09-06T04:47:55.673Z,72.55
2022-09-06T04:48:55.689Z,73.32
2022-09-06T04:49:55.679Z,73.13
2022-09-06T04:50:55.704Z,73.13
2022-09-06T04:51:55.682Z,73.22
2022-09-06T04:52:55.689Z,73.70
2022-09-06T04:53:55.696Z,73.51
2022-09-06T04:54:55.700Z,73.41
2022-09-06T04:55:55.699Z,73.41
2022-09-06T04:56:55.689Z,73.70
2022-09-06T04:57:55.693Z,73.22
2022-09-06T04:58:55.702Z,73.51
2022-09-06T04:59:55.706Z,73.41
2022-09-06T05:00:55.758Z,73.80
2022-09-06T05:01:55.803Z,73.61
2022-09-06T05:02:55.714Z,73.61
2022-09-06T05:03:57.102Z,73.41
2022-09-06T05:04:55.722Z,73.70
2022-09-06T05:05:55.718Z,74.37
2022-09-06T05:06:55.716Z,75.04
2022-09-06T05:07:55.722Z,74.47
2022-09-06T05:08:55.728Z,73.99
2022-09-06T05:09:55.734Z,73.99
2022-09-06T05:10:55.721Z,74.08
2022-09-06T05:11:55.742Z,73.93
2022-09-06T05:12:55.728Z,74.22
2022-09-06T05:13:55.721Z,74.31
2022-09-06T05:14:55.726Z,74.51
2022-09-06T05:15:55.746Z,74.22
2022-09-06T05:16:55.774Z,74.22
2022-09-06T05:17:55.748Z,73.74
2022-09-06T05:18:55.726Z,73.45
2022-09-06T05:19:55.736Z,73.74
2022-09-06T05:20:55.735Z,74.02
2022-09-06T05:21:55.736Z,73.83
2022-09-06T05:22:55.799Z,73.74
2022-09-06T05:23:58.655Z,73.74
2022-09-06T05:24:55.753Z,73.55
2022-09-06T05:25:55.746Z,73.45
2022-09-06T05:26:55.749Z,73.45
2022-09-06T05:27:55.749Z,73.35
2022-09-06T05:28:55.756Z,74.12
2022-09-06T05:29:55.749Z,73.65
2022-09-06T05:30:55.778Z,73.45
2022-09-06T05:31:55.780Z,73.55
2022-09-06T05:32:55.759Z,73.93
2022-09-06T05:33:55.785Z,73.35
2022-09-06T05:34:55.766Z,74.41
2022-09-06T05:35:55.763Z,74.22
2022-09-06T05:36:55.785Z,73.83
2022-09-06T05:37:55.764Z,73.83
2022-09-06T05:38:55.777Z,73.55
2022-09-06T05:39:55.844Z,73.55
2022-09-06T05:40:55.766Z,73.35
2022-09-06T05:41:55.771Z,73.35
2022-09-06T05:42:55.780Z,73.35
2022-09-06T05:43:55.791Z,73.26
2022-09-06T05:44:55.772Z,73.45
2022-09-06T05:45:55.909Z,74.51
2022-09-06T05:46:55.779Z,74.41
2022-09-06T05:47:55.782Z,74.12
2022-09-06T05:48:55.790Z,74.51
2022-09-06T05:49:55.805Z,73.74
2022-09-06T05:50:55.800Z,73.26
2022-09-06T05:51:55.793Z,73.35
2022-09-06T05:52:55.790Z,73.45
2022-09-06T05:53:55.801Z,72.88
2022-09-06T05:54:55.839Z,73.74
2022-09-06T05:55:55.790Z,73.65
2022-09-06T05:56:55.793Z,73.65
2022-09-06T05:57:55.803Z,74.02
2022-09-06T05:58:55.797Z,74.22
2022-09-06T05:59:55.804Z,74.22
2022-09-06T06:00:55.854Z,74.41
2022-09-06T06:01:55.838Z,74.31
2022-09-06T06:02:55.804Z,74.89
2022-09-06T06:03:55.822Z,74.02
2022-09-06T06:04:55.804Z,73.55
2022-09-06T06:05:55.817Z,73.10
2022-09-06T06:06:55.828Z,73.30
2022-09-06T06:07:55.829Z,73.49
2022-09-06T06:08:55.822Z,73.58
2022-09-06T06:09:55.810Z,73.87
2022-09-06T06:10:55.834Z,73.20
2022-09-06T06:11:55.832Z,72.81
2022-09-06T06:12:55.830Z,72.63
2022-09-06T06:13:55.838Z,72.43
2022-09-06T06:14:55.836Z,72.43
2022-09-06T06:15:55.831Z,71.95
2022-09-06T06:16:55.887Z,72.14
2022-09-06T06:17:55.828Z,72.43
2022-09-06T06:18:55.861Z,72.47
2022-09-06T06:19:55.843Z,72.28
2022-09-06T06:20:55.838Z,71.98
2022-09-06T06:21:55.857Z,71.98
2022-09-06T06:22:55.855Z,71.89
2022-09-06T06:23:55.848Z,71.61
2022-09-06T06:24:55.858Z,71.70
2022-09-06T06:25:55.841Z,71.31
2022-09-06T06:26:55.848Z,70.93
2022-09-06T06:27:55.857Z,70.84
2022-09-06T06:28:55.880Z,71.12
2022-09-06T06:29:55.866Z,71.03
2022-09-06T06:30:55.884Z,70.93
2022-09-06T06:31:55.909Z,71.70
2022-09-06T06:32:55.875Z,70.93
2022-09-06T06:33:55.875Z,70.93
2022-09-06T06:34:55.873Z,71.25
2022-09-06T06:35:55.865Z,71.16
2022-09-06T06:36:55.875Z,70.39
2022-09-06T06:37:55.868Z,70.49
2022-09-06T06:38:55.880Z,69.46
2022-09-06T06:39:55.972Z,68.79
2022-09-06T06:41:00.980Z,68.89
2022-09-06T06:41:55.879Z,68.54
2022-09-06T06:42:55.887Z,68.25
2022-09-06T06:43:55.882Z,68.06
2022-09-06T06:44:55.910Z,68.06
2022-09-06T06:45:55.938Z,67.61
2022-09-06T06:46:55.889Z,67.90
2022-09-06T06:47:55.891Z,67.61
2022-09-06T06:48:55.909Z,67.65
2022-09-06T06:49:55.910Z,66.17
2022-09-06T06:50:55.903Z,65.63
2022-09-06T06:51:55.944Z,65.91
2022-09-06T06:52:55.927Z,65.53
2022-09-06T06:53:55.919Z,65.33
2022-09-06T06:54:55.909Z,65.33
2022-09-06T06:55:55.914Z,65.91
2022-09-06T06:56:55.918Z,66.39
2022-09-06T06:57:55.925Z,64.86
2022-09-06T06:58:55.939Z,65.33
2022-09-06T06:59:55.937Z,64.37
2022-09-06T07:00:56.083Z,65.05
2022-09-06T07:01:56.036Z,65.24
2022-09-06T07:02:55.931Z,65.63
2022-09-06T07:03:55.952Z,64.28
2022-09-06T07:04:55.942Z,64.79
2022-09-06T07:06:12.037Z,65.37
2022-09-06T07:07:55.980Z,64.40
2022-09-06T07:08:55.973Z,64.69
2022-09-06T07:10:55.986Z,64.05
2022-09-06T07:11:55.977Z,64.40
2022-09-06T07:12:55.981Z,64.92
2022-09-06T07:13:55.991Z,64.05
2022-09-06T07:14:55.990Z,64.82
2022-09-06T07:15:56.014Z,64.63
2022-09-06T07:16:56.002Z,63.85
2022-09-06T07:17:56.008Z,64.05
2022-09-06T07:18:55.998Z,64.15
2022-09-06T07:21:56.000Z,63.95
2022-09-06T07:22:56.019Z,64.25
2022-09-06T07:24:11.348Z,63.60
2022-09-06T07:24:56.019Z,63.98
2022-09-06T07:25:56.026Z,63.89
2022-09-06T07:27:56.030Z,63.79
2022-09-06T07:28:56.045Z,63.21
2022-09-06T07:29:56.044Z,62.63
2022-09-06T07:30:56.057Z,63.50
2022-09-06T07:32:11.653Z,63.31
2022-09-06T07:32:56.051Z,64.08
2022-09-06T07:33:56.075Z,64.08
2022-09-06T07:34:56.050Z,64.08
2022-09-06T07:35:56.067Z,64.28
2022-09-06T07:36:56.092Z,64.08
2022-09-06T07:37:56.062Z,63.50
2022-09-06T07:38:56.066Z,64.11
2022-09-06T07:39:56.228Z,63.24
2022-09-06T07:40:56.088Z,62.79
2022-09-06T07:41:56.122Z,62.31
2022-09-06T07:42:56.083Z,62.99
2022-09-06T07:43:56.089Z,62.51
2022-09-06T07:44:56.094Z,62.51
2022-09-06T07:45:56.106Z,62.79
2022-09-06T07:48:56.115Z,61.86
2022-09-06T07:50:59.121Z,61.83
2022-09-06T07:51:56.117Z,62.70
2022-09-06T07:53:15.669Z,62.76
2022-09-06T07:54:19.279Z,63.02
2022-09-06T07:54:56.145Z,63.60
2022-09-06T07:55:56.150Z,63.98
2022-09-06T07:56:56.142Z,64.47
2022-09-06T07:57:56.141Z,64.28
2022-09-06T07:58:56.147Z,64.66
2022-09-06T07:59:56.166Z,64.95
2022-09-06T08:00:56.206Z,64.86
2022-09-06T08:01:56.191Z,64.86
2022-09-06T08:02:56.173Z,65.24
2022-09-06T08:03:56.183Z,64.47
2022-09-06T08:04:56.171Z,64.76
2022-09-06T08:06:11.486Z,64.95
2022-09-06T08:09:56.214Z,65.14
2022-09-06T08:10:56.207Z,65.24
2022-09-06T08:11:56.205Z,66.11
2022-09-06T08:12:56.204Z,66.49
2022-09-06T08:13:56.250Z,67.16
2022-09-06T08:14:56.225Z,66.39
2022-09-06T08:15:56.282Z,66.49
2022-09-06T08:16:56.237Z,65.59
2022-09-06T08:17:56.237Z,66.46
2022-09-06T08:18:56.228Z,66.85
2022-09-06T08:19:56.238Z,67.03
2022-09-06T08:20:56.262Z,67.13
2022-09-06T08:21:56.247Z,66.94
2022-09-06T08:22:56.252Z,67.61
2022-09-06T08:23:56.257Z,66.91
2022-09-06T08:24:56.259Z,67.58
2022-09-06T08:25:56.264Z,67.68
2022-09-06T08:26:56.280Z,67.87
2022-09-06T08:27:56.272Z,68.26
2022-09-06T08:28:56.292Z,68.84
2022-09-06T08:29:56.271Z,69.31
2022-09-06T08:30:56.289Z,69.35
2022-09-06T08:31:56.372Z,69.06
2022-09-06T08:32:56.285Z,68.16
2022-09-06T08:33:56.282Z,67.77
2022-09-06T08:34:56.315Z,68.10
2022-09-06T08:35:56.299Z,67.58
2022-09-06T08:36:56.323Z,67.97
2022-09-06T08:37:56.314Z,67.68
2022-09-06T08:38:56.317Z,67.68
2022-09-06T08:39:56.388Z,68.35
2022-09-06T08:40:56.341Z,68.74
2022-09-06T08:41:56.328Z,68.64
2022-09-06T08:42:56.343Z,68.26
2022-09-06T08:44:57.273Z,68.54
2022-09-06T08:45:56.329Z,69.22
2022-09-06T08:46:56.397Z,69.51
2022-09-06T08:47:56.351Z,69.45
2022-09-06T08:49:04.683Z,69.73
2022-09-06T08:49:56.344Z,69.54
2022-09-06T08:50:56.362Z,69.54
2022-09-06T08:52:03.906Z,69.19
2022-09-06T08:53:19.955Z,69.38
2022-09-06T08:54:04.745Z,68.52
2022-09-06T08:55:04.768Z,68.61
2022-09-06T08:56:04.781Z,68.61
2022-09-06T08:57:04.917Z,68.42
2022-09-06T08:59:39.197Z,68.13
2022-09-06T09:00:43.507Z,67.74
2022-09-06T09:01:44.191Z,67.65
2022-09-06T09:04:31.270Z,67.55
2022-09-06T09:06:54.719Z,67.46
2022-09-06T09:07:54.708Z,68.42
2022-09-06T09:08:54.713Z,68.32
2022-09-06T09:09:54.713Z,67.55
2022-09-06T09:10:54.706Z,67.74
2022-09-06T09:11:54.709Z,67.94
2022-09-06T09:12:54.719Z,67.74
2022-09-06T09:13:55.987Z,68.13
2022-09-06T09:14:54.734Z,68.96
2022-09-06T09:15:54.799Z,68.99
2022-09-06T09:16:54.734Z,68.71
2022-09-06T09:17:54.740Z,69.29
2022-09-06T09:18:54.731Z,68.61
2022-09-06T09:19:54.775Z,68.80
2022-09-06T09:20:54.747Z,68.23
2022-09-06T09:21:54.771Z,68.71
2022-09-06T09:22:54.746Z,68.99
2022-09-06T09:23:54.754Z,68.61
2022-09-06T09:24:54.765Z,68.71
2022-09-06T09:25:54.773Z,68.80
2022-09-06T09:26:54.794Z,68.61
2022-09-06T09:27:54.781Z,68.90
2022-09-06T09:28:54.786Z,68.74
2022-09-06T09:30:54.788Z,68.61
2022-09-06T09:31:54.821Z,68.74
2022-09-06T09:32:54.824Z,68.45
2022-09-06T09:33:54.794Z,68.80
2022-09-06T09:34:54.810Z,68.55
2022-09-06T09:35:54.799Z,68.26
2022-09-06T09:37:59.073Z,68.13
2022-09-06T09:38:54.848Z,68.52
2022-09-06T09:39:54.917Z,68.45
2022-09-06T09:40:54.835Z,68.52
2022-09-06T09:41:54.831Z,68.61
2022-09-06T09:42:54.826Z,68.71
2022-09-06T09:43:54.856Z,68.52
2022-09-06T09:44:54.847Z,68.71
2022-09-06T09:45:54.845Z,69.29
2022-09-06T09:46:54.870Z,70.06
2022-09-06T09:47:54.878Z,69.77
2022-09-06T09:48:54.854Z,69.67
2022-09-06T09:49:54.875Z,69.77
2022-09-06T09:50:54.861Z,70.06
2022-09-06T09:51:54.870Z,69.87
2022-09-06T09:52:54.910Z,70.44
2022-09-06T09:53:54.880Z,71.41
2022-09-06T09:54:54.904Z,71.41
2022-09-06T09:55:54.891Z,71.12
2022-09-06T09:56:54.887Z,71.79
2022-09-06T09:57:54.890Z,71.02
2022-09-06T09:58:54.937Z,70.73
2022-09-06T09:59:54.918Z,70.83
2022-09-06T10:00:54.935Z,70.83
2022-09-06T10:01:54.916Z,70.54
2022-09-06T10:02:54.923Z,70.83
2022-09-06T10:04:54.950Z,70.44
2022-09-06T10:05:58.910Z,70.06
2022-09-06T10:07:10.629Z,70.06
2022-09-06T10:07:54.933Z,70.64
2022-09-06T10:08:54.937Z,69.87
2022-09-06T10:09:54.990Z,70.92
2022-09-06T10:10:54.961Z,71.02
2022-09-06T10:11:54.942Z,71.12
2022-09-06T10:12:54.949Z,71.41
2022-09-06T10:13:54.952Z,70.35
2022-09-06T10:14:54.982Z,70.35
2022-09-06T10:15:54.980Z,71.02
2022-09-06T10:16:54.974Z,70.54
2022-09-06T10:17:54.975Z,70.54
2022-09-06T10:18:54.986Z,71.02
2022-09-06T10:19:54.986Z,70.92
2022-09-06T10:20:55.024Z,70.83
2022-09-06T10:21:54.984Z,70.44
2022-09-06T10:22:54.998Z,71.12
2022-09-06T10:24:55.001Z,71.50
2022-09-06T10:25:55.037Z,71.50
2022-09-06T10:26:55.044Z,71.41
2022-09-06T10:28:10.381Z,71.22
2022-09-06T10:28:55.025Z,72.08
2022-09-06T10:29:55.026Z,71.50
2022-09-06T10:30:55.092Z,70.54
2022-09-06T10:31:55.027Z,70.35
2022-09-06T10:32:55.080Z,69.87
2022-09-06T10:33:55.049Z,70.25
2022-09-06T10:34:55.058Z,70.25
2022-09-06T10:35:55.065Z,69.96
2022-09-06T10:36:55.048Z,70.15
2022-09-06T10:37:55.060Z,69.87
2022-09-06T10:38:55.092Z,69.77
2022-09-06T10:39:55.153Z,70.00
2022-09-06T10:40:55.118Z,70.48
2022-09-06T10:41:55.102Z,70.09
2022-09-06T10:42:55.074Z,70.19
2022-09-06T10:43:55.074Z,70.13
2022-09-06T10:44:55.098Z,70.03
2022-09-06T10:45:55.100Z,69.29
2022-09-06T10:46:55.147Z,68.71
2022-09-06T10:47:55.113Z,68.55
2022-09-06T10:48:55.116Z,67.88
2022-09-06T10:49:55.092Z,67.04
2022-09-06T10:50:55.104Z,65.98
2022-09-06T10:51:55.105Z,65.40
2022-09-06T10:52:55.152Z,66.46
2022-09-06T10:53:55.154Z,66.17
2022-09-06T10:54:55.129Z,65.40
2022-09-06T10:55:57.815Z,65.30
2022-09-06T10:56:55.132Z,64.85
2022-09-06T10:59:55.143Z,64.01
2022-09-06T11:00:55.227Z,63.46
2022-09-06T11:01:55.268Z,62.85
2022-09-06T11:03:58.289Z,64.04
2022-09-06T11:05:55.185Z,64.14
2022-09-06T11:06:55.245Z,63.79
2022-09-06T11:08:58.164Z,62.04
2022-09-06T11:09:55.270Z,63.49
2022-09-06T11:10:55.246Z,63.14
2022-09-06T11:11:55.221Z,63.01
2022-09-06T11:12:55.243Z,61.72
2022-09-06T11:13:55.262Z,62.01
2022-09-06T11:14:55.266Z,62.88
2022-09-06T11:15:55.350Z,63.14
2022-09-06T11:16:55.281Z,63.73
2022-09-06T11:17:55.269Z,64.08
2022-09-06T11:18:55.285Z,64.47
2022-09-06T11:19:55.299Z,64.34
2022-09-06T11:20:55.317Z,64.63
2022-09-06T11:21:55.321Z,64.24
2022-09-06T11:22:55.308Z,64.43
2022-09-06T11:23:55.319Z,65.11
2022-09-06T11:24:55.338Z,65.75
2022-09-06T11:25:55.355Z,65.69
2022-09-06T11:26:55.323Z,66.94
2022-09-06T11:27:58.090Z,67.30
2022-09-06T11:28:55.363Z,67.14
2022-09-06T11:29:55.354Z,67.04
2022-09-06T11:30:55.374Z,66.43
2022-09-06T11:32:55.357Z,66.72
2022-09-06T11:33:58.375Z,66.53
2022-09-06T11:34:55.368Z,66.43
2022-09-06T11:35:55.385Z,66.72
2022-09-06T11:36:55.380Z,66.53
2022-09-06T11:37:55.399Z,66.53
2022-09-06T11:38:55.403Z,66.82
2022-09-06T11:40:55.415Z,67.11
2022-09-06T11:41:55.414Z,67.11
2022-09-06T11:42:55.460Z,66.97
2022-09-06T11:43:55.435Z,67.07
2022-09-06T11:44:55.430Z,67.27
2022-09-06T11:45:55.490Z,67.11
2022-09-06T11:46:55.506Z,66.82
2022-09-06T11:47:55.484Z,67.01
2022-09-06T11:48:55.446Z,67.30
2022-09-06T11:49:55.496Z,67.30
2022-09-06T11:50:55.455Z,66.33
2022-09-06T11:51:55.469Z,65.95
2022-09-06T11:52:55.478Z,65.88
2022-09-06T11:53:55.499Z,65.69
2022-09-06T11:54:55.487Z,65.30
2022-09-06T11:55:55.492Z,65.01
2022-09-06T11:56:55.520Z,64.82
2022-09-06T11:57:55.500Z,64.82
2022-09-06T11:58:55.504Z,65.40
2022-09-06T11:59:55.546Z,64.63
2022-09-06T12:00:55.518Z,65.20
2022-09-06T12:01:55.532Z,65.88
2022-09-06T12:04:58.350Z,67.14
2022-09-06T12:05:55.548Z,67.01
2022-09-06T12:06:55.537Z,66.72
2022-09-06T12:07:55.536Z,66.72
2022-09-06T12:08:55.558Z,66.56
2022-09-06T12:09:55.565Z,66.85
2022-09-06T12:10:55.593Z,66.63
2022-09-06T12:11:55.568Z,66.63
2022-09-06T12:12:55.565Z,65.85
2022-09-06T12:13:55.583Z,66.24
2022-09-06T12:14:55.579Z,67.01
2022-09-06T12:15:55.658Z,67.11
2022-09-06T12:16:55.644Z,67.11
2022-09-06T12:17:55.590Z,67.20
2022-09-06T12:18:55.603Z,67.01
2022-09-06T12:19:55.609Z,67.49
2022-09-06T12:20:55.615Z,67.40
2022-09-06T12:21:55.621Z,67.49
2022-09-06T12:22:55.679Z,67.78
2022-09-06T12:23:55.630Z,67.59
2022-09-06T12:24:55.641Z,67.49
2022-09-06T12:25:55.650Z,67.59
2022-09-06T12:26:56.140Z,67.11
2022-09-06T12:27:55.738Z,66.91
2022-09-06T12:28:55.664Z,67.01
2022-09-06T12:29:55.650Z,67.62
2022-09-06T12:30:55.735Z,67.14
2022-09-06T12:31:55.671Z,66.85
2022-09-06T12:32:55.697Z,66.63
2022-09-06T12:33:55.686Z,66.36
2022-09-06T12:36:55.716Z,67.14
2022-09-06T12:37:55.745Z,67.14
2022-09-06T12:38:55.704Z,66.94
2022-09-06T12:39:55.757Z,66.46
2022-09-06T12:40:55.717Z,65.98
2022-09-06T12:41:55.707Z,66.75
2022-09-06T12:42:55.726Z,66.08
2022-09-06T12:43:55.773Z,66.30
2022-09-06T12:44:55.725Z,65.34
2022-09-06T12:45:55.737Z,65.82
2022-09-06T12:46:55.747Z,66.20
2022-09-06T12:47:55.742Z,66.11
2022-09-06T12:48:55.781Z,65.82
2022-09-06T12:49:55.751Z,64.89
2022-09-06T12:50:55.758Z,65.82
2022-09-06T12:51:55.780Z,65.37
2022-09-06T12:52:55.780Z,65.95
2022-09-06T12:53:55.843Z,65.27
2022-09-06T12:54:55.792Z,65.17
2022-09-06T12:55:55.787Z,64.50
2022-09-06T12:56:55.794Z,64.31
2022-09-06T12:57:55.791Z,64.79
2022-09-06T12:58:55.830Z,64.59
2022-09-06T12:59:55.842Z,65.47
2022-09-06T13:00:55.804Z,66.24
2022-09-06T13:01:55.939Z,66.11
2022-09-06T13:02:55.946Z,66.14
2022-09-06T13:03:55.816Z,65.05
2022-09-06T13:06:27.939Z,66.01
2022-09-06T13:07:27.901Z,66.01
2022-09-06T13:08:28.053Z,65.92
2022-09-06T13:09:27.924Z,65.92
2022-09-06T13:10:27.924Z,66.01
2022-09-06T13:11:27.913Z,66.01
2022-09-06T13:12:27.931Z,66.01
2022-09-06T13:13:27.927Z,65.14
2022-09-06T13:16:01.124Z,65.66
2022-09-06T13:20:10.377Z,65.69
2022-09-06T13:21:04.232Z,64.82
2022-09-06T13:22:04.230Z,65.11
2022-09-06T13:23:04.255Z,64.43
2022-09-06T13:24:04.227Z,64.53
2022-09-06T13:25:04.227Z,63.95
2022-09-06T13:26:04.264Z,63.76
2022-09-06T13:27:04.248Z,64.62
2022-09-06T13:28:04.254Z,64.34
2022-09-06T13:29:04.267Z,64.14
2022-09-06T13:30:04.282Z,64.34
2022-09-06T13:31:04.329Z,64.24
2022-09-06T13:32:04.295Z,63.76